createdAt,value
2024-04-06T00:00:51.561Z,94846.00
2024-04-06T00:02:02.301Z,94848.00
2024-04-06T00:02:51.590Z,94848.00
2024-04-06T00:03:53.864Z,94850.00
2024-04-06T00:05:15.314Z,94853.00
2024-04-06T00:05:51.752Z,94852.00
2024-04-06T00:06:51.694Z,94855.00
2024-04-06T00:07:57.040Z,94858.00
2024-04-06T00:08:52.748Z,94860.00
2024-04-06T00:09:51.780Z,94859.00
2024-04-06T00:10:51.791Z,94859.00
2024-04-06T00:11:51.832Z,94859.00
2024-04-06T00:12:51.850Z,94859.00
2024-04-06T00:13:51.975Z,94859.00
2024-04-06T00:14:51.899Z,94857.00
2024-04-06T00:15:51.929Z,94858.00
2024-04-06T00:16:51.951Z,94857.00
2024-04-06T00:17:51.994Z,94859.00
2024-04-06T00:18:52.023Z,94860.00
2024-04-06T00:19:52.057Z,94860.00
2024-04-06T00:20:52.083Z,94860.00
2024-04-06T00:21:52.223Z,94860.00
2024-04-06T00:22:52.138Z,94861.00
2024-04-06T00:23:52.162Z,94862.00
2024-04-06T00:24:52.194Z,94859.00
2024-04-06T00:25:52.211Z,94861.00
2024-04-06T00:27:06.791Z,94859.00
2024-04-06T00:27:52.458Z,94861.00
2024-04-06T00:28:52.521Z,94862.00
2024-04-06T00:30:16.805Z,94863.00
2024-04-06T00:30:52.631Z,94861.00
2024-04-06T00:31:52.634Z,94862.00
2024-04-06T00:33:15.324Z,94864.00
2024-04-06T00:33:52.671Z,94867.00
2024-04-06T00:34:52.702Z,94870.00
2024-04-06T00:35:52.731Z,94870.00
2024-04-06T00:36:52.746Z,94868.00
2024-04-06T00:37:52.779Z,94870.00
2024-04-06T00:38:52.806Z,94871.00
2024-04-06T00:39:52.817Z,94870.00
2024-04-06T00:40:52.844Z,94870.00
2024-04-06T00:41:52.878Z,94872.00
2024-04-06T00:42:52.903Z,94873.00
2024-04-06T00:43:52.931Z,94871.00
2024-04-06T00:44:52.958Z,94867.00
2024-04-06T00:45:53.002Z,94868.00
2024-04-06T00:46:53.012Z,94869.00
2024-04-06T00:47:53.039Z,94868.00
2024-04-06T00:48:53.051Z,94868.00
2024-04-06T00:49:53.079Z,94869.00
2024-04-06T00:50:53.103Z,94870.00
2024-04-06T00:51:53.162Z,94870.00
2024-04-06T00:52:53.144Z,94870.00
2024-04-06T00:53:53.181Z,94871.00
2024-04-06T00:54:56.315Z,94875.00
2024-04-06T00:55:53.237Z,94875.00
2024-04-06T00:56:53.263Z,94875.00
2024-04-06T00:58:20.813Z,94878.00
2024-04-06T00:58:53.311Z,94880.00
2024-04-06T00:59:53.335Z,94881.00
2024-04-06T01:00:53.358Z,94884.00
2024-04-06T01:02:04.051Z,94885.00
2024-04-06T01:02:54.433Z,94885.00
2024-04-06T01:03:53.445Z,94886.00
2024-04-06T01:04:53.482Z,94886.00
2024-04-06T01:05:53.514Z,94886.00
2024-04-06T01:06:53.546Z,94885.00
2024-04-06T01:07:53.585Z,94884.00
2024-04-06T01:08:53.612Z,94885.00
2024-04-06T01:09:53.624Z,94885.00
2024-04-06T01:10:53.666Z,94887.00
2024-04-06T01:11:53.724Z,94884.00
2024-04-06T01:12:53.732Z,94883.00
2024-04-06T01:13:53.736Z,94884.00
2024-04-06T01:14:53.770Z,94883.00
2024-04-06T01:15:53.793Z,94884.00
2024-04-06T01:17:00.822Z,94887.00
2024-04-06T01:17:53.845Z,94886.00
2024-04-06T01:18:53.882Z,94890.00
2024-04-06T01:19:53.935Z,94891.00
2024-04-06T01:20:53.941Z,94892.00
2024-04-06T01:21:53.978Z,94893.00
2024-04-06T01:23:08.812Z,94891.00
2024-04-06T01:23:54.030Z,94887.00
2024-04-06T01:24:54.064Z,94885.00
2024-04-06T01:26:15.107Z,94884.00
2024-04-06T01:26:54.113Z,94882.00
2024-04-06T01:27:54.149Z,94885.00
2024-04-06T01:28:54.169Z,94885.00
2024-04-06T01:29:54.203Z,94888.00
2024-04-06T01:30:54.237Z,94890.00
2024-04-06T01:31:54.259Z,94888.00
2024-04-06T01:32:54.288Z,94891.00
2024-04-06T01:33:54.322Z,94889.00
2024-04-06T01:34:54.357Z,94890.00
2024-04-06T01:35:54.391Z,94892.00
2024-04-06T01:36:54.450Z,94892.00
2024-04-06T01:37:54.461Z,94890.00
2024-04-06T01:38:54.487Z,94891.00
2024-04-06T01:39:54.523Z,94891.00
2024-04-06T01:40:54.567Z,94894.00
2024-04-06T01:41:54.586Z,94896.00
2024-04-06T01:42:54.623Z,94898.00
2024-04-06T01:43:54.648Z,94895.00
2024-04-06T01:44:59.826Z,94894.00
2024-04-06T01:45:54.707Z,94894.00
2024-04-06T01:46:54.739Z,94896.00
2024-04-06T01:48:09.322Z,94896.00
2024-04-06T01:48:54.991Z,94898.00
2024-04-06T01:49:55.055Z,94902.00
2024-04-06T01:51:22.824Z,94903.00
2024-04-06T01:51:55.134Z,94902.00
2024-04-06T01:52:55.165Z,94904.00
2024-04-06T01:54:19.339Z,94906.00
2024-04-06T01:54:55.211Z,94905.00
2024-04-06T01:55:55.239Z,94907.00
2024-04-06T01:56:55.269Z,94906.00
2024-04-06T01:57:55.301Z,94908.00
2024-04-06T01:58:55.317Z,94909.00
2024-04-06T01:59:55.376Z,94910.00
2024-04-06T02:00:55.393Z,94913.00
2024-04-06T02:01:55.427Z,94914.00
2024-04-06T02:02:55.446Z,94914.00
2024-04-06T02:03:55.477Z,94912.00
2024-04-06T02:04:55.525Z,94915.00
2024-04-06T02:05:55.551Z,94913.00
2024-04-06T02:06:55.600Z,94911.00
2024-04-06T02:07:55.622Z,94909.00
2024-04-06T02:08:55.662Z,94908.00
2024-04-06T02:09:55.728Z,94909.00
2024-04-06T02:10:55.858Z,94907.00
2024-04-06T02:11:55.845Z,94909.00
2024-04-06T02:12:55.897Z,94912.00
2024-04-06T02:13:55.859Z,94911.00
2024-04-06T02:14:55.899Z,94911.00
2024-04-06T02:16:10.837Z,94910.00
2024-04-06T02:16:55.913Z,94910.00
2024-04-06T02:17:55.951Z,94911.00
2024-04-06T02:19:10.842Z,94912.00
2024-04-06T02:19:56.004Z,94911.00
2024-04-06T02:20:56.031Z,94912.00
2024-04-06T02:21:56.070Z,94912.00
2024-04-06T02:22:56.101Z,94914.00
2024-04-06T02:23:56.138Z,94915.00
2024-04-06T02:24:56.166Z,94916.00
2024-04-06T02:25:56.208Z,94915.00
2024-04-06T02:26:56.243Z,94915.00
2024-04-06T02:27:56.273Z,94918.00
2024-04-06T02:28:56.320Z,94920.00
2024-04-06T02:29:56.356Z,94924.00
2024-04-06T02:30:57.338Z,94924.00
2024-04-06T02:31:56.417Z,94923.00
2024-04-06T02:32:56.464Z,94927.00
2024-04-06T02:33:56.494Z,94928.00
2024-04-06T02:35:01.846Z,94932.00
2024-04-06T02:35:56.562Z,94932.00
2024-04-06T02:36:56.592Z,94932.00
2024-04-06T02:37:56.648Z,94932.00
2024-04-06T02:38:56.699Z,94935.00
2024-04-06T02:39:56.774Z,94934.00
2024-04-06T02:40:58.368Z,94933.00
2024-04-06T02:41:56.852Z,94933.00
2024-04-06T02:42:56.913Z,94930.00
2024-04-06T02:44:21.352Z,94930.00
2024-04-06T02:44:57.005Z,94927.00
2024-04-06T02:45:57.040Z,94926.00
2024-04-06T02:47:32.861Z,94926.00
2024-04-06T02:47:57.094Z,94927.00
2024-04-06T02:48:57.174Z,94929.00
2024-04-06T02:49:57.160Z,94928.00
2024-04-06T02:50:57.191Z,94929.00
2024-04-06T02:51:57.228Z,94931.00
2024-04-06T02:52:57.260Z,94931.00
2024-04-06T02:53:57.295Z,94934.00
2024-04-06T02:54:57.350Z,94935.00
2024-04-06T02:55:57.370Z,94936.00
2024-04-06T02:56:57.400Z,94937.00
2024-04-06T02:57:57.435Z,94937.00
2024-04-06T02:58:57.489Z,94939.00
2024-04-06T02:59:57.520Z,94938.00
2024-04-06T03:00:57.541Z,94939.00
2024-04-06T03:01:57.571Z,94939.00
2024-04-06T03:03:04.353Z,94941.00
2024-04-06T03:03:57.634Z,94940.00
2024-04-06T03:04:57.673Z,94942.00
2024-04-06T03:06:00.365Z,94943.00
2024-04-06T03:06:57.809Z,94944.00
2024-04-06T03:07:57.779Z,94944.00
2024-04-06T03:09:18.841Z,94946.00
2024-04-06T03:09:57.838Z,94947.00
2024-04-06T03:10:57.873Z,94946.00
2024-04-06T03:12:18.921Z,94947.00
2024-04-06T03:12:57.939Z,94945.00
2024-04-06T03:13:57.959Z,94943.00
2024-04-06T03:14:58.002Z,94943.00
2024-04-06T03:15:58.047Z,94943.00
2024-04-06T03:16:58.073Z,94941.00
2024-04-06T03:17:58.107Z,94942.00
2024-04-06T03:18:58.144Z,94945.00
2024-04-06T03:19:58.183Z,94949.00
2024-04-06T03:20:58.216Z,94947.00
2024-04-06T03:21:58.252Z,94947.00
2024-04-06T03:22:58.288Z,94946.00
2024-04-06T03:23:58.317Z,94946.00
2024-04-06T03:24:58.351Z,94944.00
2024-04-06T03:25:58.380Z,94946.00
2024-04-06T03:26:58.406Z,94946.00
2024-04-06T03:27:58.454Z,94945.00
2024-04-06T03:28:58.470Z,94947.00
2024-04-06T03:29:58.508Z,94947.00
2024-04-06T03:30:58.532Z,94948.00
2024-04-06T03:31:58.567Z,94946.00
2024-04-06T03:32:58.604Z,94945.00
2024-04-06T03:34:01.371Z,94945.00
2024-04-06T03:34:58.660Z,94947.00
2024-04-06T03:35:58.691Z,94947.00
2024-04-06T03:37:13.365Z,94949.00
2024-04-06T03:37:59.001Z,94947.00
2024-04-06T03:38:59.053Z,94949.00
2024-04-06T03:40:25.377Z,94948.00
2024-04-06T03:40:59.136Z,94948.00
2024-04-06T03:41:59.158Z,94949.00
2024-04-06T03:42:59.196Z,94949.00
2024-04-06T03:43:59.235Z,94949.00
2024-04-06T03:44:59.273Z,94948.00
2024-04-06T03:45:59.316Z,94949.00
2024-04-06T03:46:59.329Z,94948.00
2024-04-06T03:47:59.362Z,94947.00
2024-04-06T03:48:59.411Z,94948.00
2024-04-06T03:49:59.461Z,94948.00
2024-04-06T03:50:59.509Z,94950.00
2024-04-06T03:51:59.560Z,94951.00
2024-04-06T03:52:59.613Z,94952.00
2024-04-06T03:53:59.662Z,94951.00
2024-04-06T03:54:59.717Z,94952.00
2024-04-06T03:56:06.372Z,94953.00
2024-04-06T03:56:59.806Z,94953.00
2024-04-06T03:57:59.828Z,94956.00
2024-04-06T03:58:59.874Z,94958.00
2024-04-06T03:59:59.912Z,94958.00
2024-04-06T04:00:59.931Z,94958.00
2024-04-06T04:01:59.972Z,94961.00
2024-04-06T04:02:59.997Z,94960.00
2024-04-06T04:04:00.041Z,94959.00
2024-04-06T04:05:24.380Z,94957.00
2024-04-06T04:06:00.098Z,94959.00
2024-04-06T04:07:00.119Z,94962.00
2024-04-06T04:08:00.156Z,94958.00
2024-04-06T04:09:00.173Z,94956.00
2024-04-06T04:10:00.225Z,94957.00
2024-04-06T04:11:00.293Z,94956.00
2024-04-06T04:12:00.260Z,94958.00
2024-04-06T04:13:00.299Z,94958.00
2024-04-06T04:14:00.311Z,94955.00
2024-04-06T04:15:00.350Z,94956.00
2024-04-06T04:16:00.371Z,94954.00
2024-04-06T04:17:00.406Z,94957.00
2024-04-06T04:18:00.440Z,94959.00
2024-04-06T04:19:00.470Z,94958.00
2024-04-06T04:20:00.509Z,94957.00
2024-04-06T04:21:00.519Z,94959.00
2024-04-06T04:22:00.564Z,94961.00
2024-04-06T04:23:00.585Z,94961.00
2024-04-06T04:24:01.383Z,94964.00
2024-04-06T04:25:00.643Z,94967.00
2024-04-06T04:26:00.665Z,94966.00
2024-04-06T04:27:03.388Z,94969.00
2024-04-06T04:28:00.721Z,94969.00
2024-04-06T04:29:00.760Z,94972.00
2024-04-06T04:30:02.395Z,94972.00
2024-04-06T04:31:00.800Z,94975.00
2024-04-06T04:32:00.834Z,94976.00
2024-04-06T04:33:21.883Z,94974.00
2024-04-06T04:34:00.898Z,94974.00
2024-04-06T04:35:00.947Z,94972.00
2024-04-06T04:36:00.984Z,94973.00
2024-04-06T04:37:01.024Z,94973.00
2024-04-06T04:38:01.035Z,94975.00
2024-04-06T04:39:01.072Z,94975.00
2024-04-06T04:40:01.141Z,94976.00
2024-04-06T04:41:01.145Z,94979.00
2024-04-06T04:42:01.172Z,94980.00
2024-04-06T04:43:01.211Z,94982.00
2024-04-06T04:44:06.619Z,94980.00
2024-04-06T04:45:02.379Z,94985.00
2024-04-06T04:46:01.315Z,94982.00
2024-04-06T04:47:01.325Z,94981.00
2024-04-06T04:48:01.364Z,94981.00
2024-04-06T04:49:01.382Z,94982.00
2024-04-06T04:50:01.414Z,94982.00
2024-04-06T04:51:01.450Z,94983.00
2024-04-06T04:52:16.399Z,94981.00
2024-04-06T04:53:01.534Z,94981.00
2024-04-06T04:54:01.550Z,94982.00
2024-04-06T04:55:15.917Z,94980.00
2024-04-06T04:56:01.641Z,94982.00
2024-04-06T04:57:01.652Z,94982.00
2024-04-06T04:58:22.717Z,94983.00
2024-04-06T04:59:01.718Z,94983.00
2024-04-06T05:00:01.760Z,94986.00
2024-04-06T05:01:29.633Z,94987.00
2024-04-06T05:02:01.867Z,94987.00
2024-04-06T05:03:01.880Z,94990.00
2024-04-06T05:04:01.877Z,94990.00
2024-04-06T05:05:01.918Z,94992.00
2024-04-06T05:06:01.949Z,94990.00
2024-04-06T05:07:01.996Z,94990.00
2024-04-06T05:08:02.015Z,94990.00
2024-04-06T05:09:02.046Z,94987.00
2024-04-06T05:10:02.083Z,94988.00
2024-04-06T05:11:02.121Z,94988.00
2024-04-06T05:12:02.140Z,94986.00
2024-04-06T05:13:02.171Z,94985.00
2024-04-06T05:14:02.208Z,94986.00
2024-04-06T05:15:02.241Z,94986.00
2024-04-06T05:16:02.265Z,94987.00
2024-04-06T05:17:04.912Z,94988.00
2024-04-06T05:18:02.550Z,94993.00
2024-04-06T05:19:02.602Z,94998.00
2024-04-06T05:20:13.415Z,95002.00
2024-04-06T05:21:02.681Z,95005.00
2024-04-06T05:22:02.730Z,95005.00
2024-04-06T05:23:17.419Z,95008.00
2024-04-06T05:24:02.798Z,95007.00
2024-04-06T05:25:02.835Z,95007.00
2024-04-06T05:26:17.409Z,95007.00
2024-04-06T05:27:03.076Z,95008.00
2024-04-06T05:28:03.179Z,95011.00
2024-04-06T05:29:03.252Z,95012.00
2024-04-06T05:30:03.350Z,95015.00
2024-04-06T05:31:03.448Z,95012.00
2024-04-06T05:32:03.498Z,95013.00
2024-04-06T05:33:03.544Z,95008.00
2024-04-06T05:34:03.590Z,95007.00
2024-04-06T05:35:03.637Z,95004.00
2024-04-06T05:36:03.695Z,95004.00
2024-04-06T05:37:03.719Z,95005.00
2024-04-06T05:38:03.765Z,95008.00
2024-04-06T05:39:03.812Z,95009.00
2024-04-06T05:40:03.888Z,95009.00
2024-04-06T05:41:03.923Z,95009.00
2024-04-06T05:42:03.957Z,95009.00
2024-04-06T05:43:04.007Z,95009.00
2024-04-06T05:44:06.389Z,95006.00
2024-04-06T05:45:04.100Z,95006.00
2024-04-06T05:46:04.127Z,95006.00
2024-04-06T05:47:04.201Z,95007.00
2024-04-06T05:48:10.922Z,95006.00
2024-04-06T05:49:04.241Z,95006.00
2024-04-06T05:50:04.281Z,95006.00
2024-04-06T05:51:06.924Z,95005.00
2024-04-06T05:52:04.649Z,95006.00
2024-04-06T05:53:04.694Z,95008.00
2024-04-06T05:54:19.426Z,95004.00
2024-04-06T05:55:04.812Z,95003.00
2024-04-06T05:56:04.840Z,95001.00
2024-04-06T05:57:04.876Z,94997.00
2024-04-06T05:58:04.923Z,94997.00
2024-04-06T05:59:04.975Z,94990.00
2024-04-06T06:00:05.019Z,94990.00
2024-04-06T06:01:05.052Z,94987.00
2024-04-06T06:02:05.089Z,94988.00
2024-04-06T06:03:05.098Z,94991.00
2024-04-06T06:04:05.133Z,94991.00
2024-04-06T06:05:05.169Z,94994.00
2024-04-06T06:06:05.200Z,94994.00
2024-04-06T06:07:05.233Z,94995.00
2024-04-06T06:08:05.282Z,94992.00
2024-04-06T06:09:05.294Z,94992.00
2024-04-06T06:10:05.341Z,94988.00
2024-04-06T06:11:05.355Z,94992.00
2024-04-06T06:12:05.383Z,94991.00
2024-04-06T06:13:05.413Z,94991.00
2024-04-06T06:14:05.436Z,94993.00
2024-04-06T06:15:05.523Z,94994.00
2024-04-06T06:16:20.425Z,94993.00
2024-04-06T06:17:05.508Z,94995.00
2024-04-06T06:18:05.847Z,94993.00
2024-04-06T06:19:26.577Z,94997.00
2024-04-06T06:20:05.588Z,94997.00
2024-04-06T06:21:05.663Z,94997.00
2024-04-06T06:22:26.638Z,95001.00
2024-04-06T06:23:05.656Z,95000.00
2024-04-06T06:24:05.669Z,94998.00
2024-04-06T06:25:05.713Z,95000.00
2024-04-06T06:26:05.744Z,94997.00
2024-04-06T06:27:05.754Z,94995.00
2024-04-06T06:28:05.782Z,94992.00
2024-04-06T06:29:05.803Z,94993.00
2024-04-06T06:30:05.862Z,94993.00
2024-04-06T06:31:05.910Z,94994.00
2024-04-06T06:32:05.891Z,94995.00
2024-04-06T06:33:05.914Z,94993.00
2024-04-06T06:34:05.918Z,94992.00
2024-04-06T06:35:05.947Z,94994.00
2024-04-06T06:38:08.934Z,94998.00
2024-04-06T06:41:12.937Z,95002.00
2024-04-06T06:42:06.109Z,95000.00
2024-04-06T06:43:06.145Z,95001.00
2024-04-06T06:44:20.944Z,94997.00
2024-04-06T06:45:06.199Z,94998.00
2024-04-06T06:46:06.221Z,94997.00
2024-04-06T06:47:20.944Z,95000.00
2024-04-06T06:48:06.270Z,94997.00
2024-04-06T06:49:06.320Z,94998.00
2024-04-06T06:50:06.345Z,94999.00
2024-04-06T06:51:06.369Z,94999.00
2024-04-06T06:52:06.397Z,94999.00
2024-04-06T06:53:06.429Z,95002.00
2024-04-06T06:54:06.470Z,95002.00
2024-04-06T06:55:06.497Z,95001.00
2024-04-06T06:56:06.518Z,95001.00
2024-04-06T06:57:06.549Z,95001.00
2024-04-06T06:58:06.584Z,95001.00
2024-04-06T06:59:06.599Z,95000.00
2024-04-06T07:01:06.663Z,95000.00
2024-04-06T07:02:06.682Z,94999.00
2024-04-06T07:03:06.712Z,95000.00
2024-04-06T07:04:06.757Z,94999.00
2024-04-06T07:05:06.767Z,94997.00
2024-04-06T07:06:06.786Z,94992.00
2024-04-06T07:07:08.530Z,94987.00
2024-04-06T07:08:06.830Z,94984.00
2024-04-06T07:09:21.454Z,94980.00
2024-04-06T07:10:08.736Z,94977.00
2024-04-06T07:11:07.173Z,94977.00
2024-04-06T07:12:42.956Z,94978.00
2024-04-06T07:13:07.286Z,94978.00
2024-04-06T07:14:07.284Z,94975.00
2024-04-06T07:15:07.311Z,94978.00
2024-04-06T07:16:07.353Z,94975.00
2024-04-06T07:17:07.363Z,94977.00
2024-04-06T07:18:07.383Z,94976.00
2024-04-06T07:19:07.437Z,94975.00
2024-04-06T07:20:07.438Z,94976.00
2024-04-06T07:21:07.452Z,94980.00
2024-04-06T07:22:07.534Z,94980.00
2024-04-06T07:23:07.506Z,94984.00
2024-04-06T07:24:07.539Z,94984.00
2024-04-06T07:25:07.582Z,94983.00
2024-04-06T07:26:07.580Z,94987.00
2024-04-06T07:27:07.613Z,94989.00
2024-04-06T07:28:07.665Z,94987.00
2024-04-06T07:29:07.667Z,94988.00
2024-04-06T07:30:07.692Z,94987.00
2024-04-06T07:31:14.476Z,94988.00
2024-04-06T07:32:07.729Z,94988.00
2024-04-06T07:33:07.767Z,94989.00
2024-04-06T07:34:08.525Z,94988.00
2024-04-06T07:35:07.823Z,94990.00
2024-04-06T07:36:07.834Z,94991.00
2024-04-06T07:37:31.457Z,94991.00
2024-04-06T07:38:08.091Z,94991.00
2024-04-06T07:40:36.971Z,94991.00
2024-04-06T07:41:08.205Z,94988.00
2024-04-06T07:42:08.231Z,94988.00
2024-04-06T07:43:08.300Z,94989.00
2024-04-06T07:44:08.281Z,94986.00
2024-04-06T07:45:08.294Z,94987.00
2024-04-06T07:46:08.351Z,94987.00
2024-04-06T07:47:08.345Z,94988.00
2024-04-06T07:48:08.468Z,94987.00
2024-04-06T07:49:08.423Z,94983.00
2024-04-06T07:50:08.431Z,94985.00
2024-04-06T07:51:08.442Z,94982.00
2024-04-06T07:52:08.522Z,94982.00
2024-04-06T07:53:08.483Z,94982.00
2024-04-06T07:54:08.509Z,94981.00
2024-04-06T07:55:08.617Z,94980.00
2024-04-06T07:56:08.647Z,94979.00
2024-04-06T07:57:08.716Z,94980.00
2024-04-06T07:58:08.780Z,94978.00
2024-04-06T07:59:29.860Z,94979.00
2024-04-06T08:00:08.869Z,94976.00
2024-04-06T08:01:08.921Z,94977.00
2024-04-06T08:02:23.480Z,94975.00
2024-04-06T08:03:09.113Z,94974.00
2024-04-06T08:04:09.243Z,94972.00
2024-04-06T08:05:33.496Z,94970.00
2024-04-06T08:06:09.290Z,94970.00
2024-04-06T08:07:09.380Z,94968.00
2024-04-06T08:08:44.974Z,94969.00
2024-04-06T08:09:09.601Z,94969.00
2024-04-06T08:10:09.699Z,94966.00
2024-04-06T08:11:09.740Z,94967.00
2024-04-06T08:12:09.826Z,94966.00
2024-04-06T08:13:09.904Z,94968.00
2024-04-06T08:14:20.539Z,94964.00
2024-04-06T08:15:10.986Z,94964.00
2024-04-06T08:16:10.004Z,94961.00
2024-04-06T08:17:10.026Z,94963.00
2024-04-06T08:18:10.051Z,94964.00
2024-04-06T08:19:10.091Z,94964.00
2024-04-06T08:20:10.130Z,94962.00
2024-04-06T08:21:10.138Z,94962.00
2024-04-06T08:22:10.174Z,94963.00
2024-04-06T08:23:11.921Z,94961.00
2024-04-06T08:24:24.980Z,94963.00
2024-04-06T08:25:10.656Z,94960.00
2024-04-06T08:26:10.718Z,94958.00
2024-04-06T08:27:17.494Z,94958.00
2024-04-06T08:28:10.808Z,94958.00
2024-04-06T08:29:10.836Z,94954.00
2024-04-06T08:30:10.839Z,94954.00
2024-04-06T08:31:10.913Z,94953.00
2024-04-06T08:32:10.900Z,94951.00
2024-04-06T08:33:25.501Z,94948.00
2024-04-06T08:34:11.161Z,94947.00
2024-04-06T08:35:11.218Z,94946.00
2024-04-06T08:36:11.291Z,94945.00
2024-04-06T08:37:11.389Z,94942.00
2024-04-06T08:38:11.460Z,94942.00
2024-04-06T08:39:11.543Z,94941.00
2024-04-06T08:40:11.615Z,94939.00
2024-04-06T08:41:11.703Z,94938.00
2024-04-06T08:42:11.775Z,94938.00
2024-04-06T08:43:11.892Z,94937.00
2024-04-06T08:44:11.936Z,94935.00
2024-04-06T08:45:12.059Z,94936.00
2024-04-06T08:46:12.117Z,94933.00
2024-04-06T08:47:12.177Z,94932.00
2024-04-06T08:48:12.256Z,94932.00
2024-04-06T08:49:12.334Z,94928.00
2024-04-06T08:50:12.464Z,94928.00
2024-04-06T08:51:12.500Z,94926.00
2024-04-06T08:52:12.593Z,94924.00
2024-04-06T08:53:12.658Z,94924.00
2024-04-06T08:54:12.739Z,94924.00
2024-04-06T08:55:18.029Z,94922.00
2024-04-06T08:56:13.567Z,94924.00
2024-04-06T08:57:12.861Z,94924.00
2024-04-06T08:58:27.494Z,94921.00
2024-04-06T08:59:13.148Z,94920.00
2024-04-06T09:00:13.234Z,94918.00
2024-04-06T09:01:48.994Z,94917.00
2024-04-06T09:02:13.335Z,94915.00
2024-04-06T09:03:13.365Z,94913.00
2024-04-06T09:04:13.382Z,94911.00
2024-04-06T09:05:13.444Z,94910.00
2024-04-06T09:06:13.445Z,94908.00
2024-04-06T09:07:13.549Z,94909.00
2024-04-06T09:08:13.510Z,94906.00
2024-04-06T09:09:13.536Z,94902.00
2024-04-06T09:10:13.590Z,94901.00
2024-04-06T09:11:13.607Z,94899.00
2024-04-06T09:12:13.623Z,94897.00
2024-04-06T09:13:13.661Z,94896.00
2024-04-06T09:14:13.673Z,94895.00
2024-04-06T09:15:13.696Z,94891.00
2024-04-06T09:16:13.763Z,94894.00
2024-04-06T09:17:13.772Z,94892.00
2024-04-06T09:18:13.783Z,94891.00
2024-04-06T09:19:13.821Z,94890.00
2024-04-06T09:20:24.505Z,94888.00
2024-04-06T09:21:13.866Z,94888.00
2024-04-06T09:22:13.939Z,94886.00
2024-04-06T09:23:28.500Z,94883.00
2024-04-06T09:24:14.157Z,94884.00
2024-04-06T09:25:14.300Z,94881.00
2024-04-06T09:26:28.509Z,94881.00
2024-04-06T09:27:14.331Z,94879.00
2024-04-06T09:28:14.382Z,94877.00
2024-04-06T09:29:29.009Z,94879.00
2024-04-06T09:30:14.407Z,94877.00
2024-04-06T09:31:14.462Z,94876.00
2024-04-06T09:32:14.443Z,94873.00
2024-04-06T09:33:14.473Z,94872.00
2024-04-06T09:34:14.581Z,94869.00
2024-04-06T09:35:14.562Z,94866.00
2024-04-06T09:36:14.561Z,94867.00
2024-04-06T09:37:14.579Z,94866.00
2024-04-06T09:38:14.586Z,94862.00
2024-04-06T09:39:14.625Z,94861.00
2024-04-06T09:40:14.722Z,94859.00
2024-04-06T09:41:14.668Z,94859.00
2024-04-06T09:42:14.684Z,94856.00
2024-04-06T09:43:14.740Z,94854.00
2024-04-06T09:44:14.773Z,94855.00
2024-04-06T09:45:14.806Z,94852.00
2024-04-06T09:46:14.837Z,94852.00
2024-04-06T09:47:14.818Z,94852.00
2024-04-06T09:48:21.514Z,94850.00
2024-04-06T09:49:14.895Z,94850.00
2024-04-06T09:50:14.921Z,94848.00
2024-04-06T09:51:35.920Z,94846.00
2024-04-06T09:52:14.957Z,94845.00
2024-04-06T09:53:14.960Z,94846.00
2024-04-06T09:54:36.008Z,94844.00
2024-04-06T09:55:15.086Z,94843.00
2024-04-06T09:56:15.039Z,94840.00
2024-04-06T09:57:15.066Z,94837.00
2024-04-06T09:58:15.136Z,94836.00
2024-04-06T09:59:15.112Z,94833.00
2024-04-06T10:00:15.280Z,94830.00
2024-04-06T10:01:15.225Z,94829.00
2024-04-06T10:02:15.228Z,94829.00
2024-04-06T10:03:15.227Z,94823.00
2024-04-06T10:04:15.265Z,94820.00
2024-04-06T10:05:15.292Z,94820.00
2024-04-06T10:06:15.327Z,94819.00
2024-04-06T10:07:15.382Z,94818.00
2024-04-06T10:08:15.397Z,94817.00
2024-04-06T10:09:15.427Z,94817.00
2024-04-06T10:10:15.462Z,94818.00
2024-04-06T10:11:15.494Z,94813.00
2024-04-06T10:12:15.545Z,94815.00
2024-04-06T10:13:15.563Z,94812.00
2024-04-06T10:14:17.981Z,94812.00
2024-04-06T10:15:15.627Z,94810.00
2024-04-06T10:16:22.532Z,94809.00
2024-04-06T10:17:15.684Z,94809.00
2024-04-06T10:18:15.695Z,94811.00
2024-04-06T10:19:30.523Z,94811.00
2024-04-06T10:20:15.747Z,94813.00
2024-04-06T10:21:15.772Z,94815.00
2024-04-06T10:22:15.816Z,94814.00
2024-04-06T10:23:15.831Z,94815.00
2024-04-06T10:24:15.856Z,94814.00
2024-04-06T10:25:15.910Z,94811.00
2024-04-06T10:26:15.920Z,94811.00
2024-04-06T10:27:15.955Z,94810.00
2024-04-06T10:28:15.990Z,94808.00
2024-04-06T10:29:15.998Z,94808.00
2024-04-06T10:30:16.030Z,94808.00
2024-04-06T10:31:16.082Z,94805.00
2024-04-06T10:32:16.085Z,94805.00
2024-04-06T10:33:16.108Z,94803.00
2024-04-06T10:34:16.162Z,94803.00
2024-04-06T10:35:16.161Z,94799.00
2024-04-06T10:36:16.190Z,94798.00
2024-04-06T10:37:16.215Z,94796.00
2024-04-06T10:38:16.252Z,94796.00
2024-04-06T10:39:16.280Z,94795.00
2024-04-06T10:40:16.377Z,94796.00
2024-04-06T10:41:16.619Z,94792.00
2024-04-06T10:42:16.375Z,94790.00
2024-04-06T10:43:16.411Z,94788.00
2024-04-06T10:44:37.591Z,94790.00
2024-04-06T10:45:16.454Z,94789.00
2024-04-06T10:46:16.489Z,94787.00
2024-04-06T10:47:31.071Z,94782.00
2024-04-06T10:48:16.700Z,94779.00
2024-04-06T10:49:16.782Z,94778.00
2024-04-06T10:50:38.544Z,94777.00
2024-04-06T10:51:16.896Z,94776.00
2024-04-06T10:52:16.998Z,94770.00
2024-04-06T10:53:16.936Z,94772.00
2024-04-06T10:54:16.969Z,94769.00
2024-04-06T10:55:17.060Z,94768.00
2024-04-06T10:56:17.014Z,94767.00
2024-04-06T10:57:17.049Z,94765.00
2024-04-06T10:58:17.082Z,94765.00
2024-04-06T10:59:17.094Z,94761.00
2024-04-06T11:00:17.121Z,94762.00
2024-04-06T11:01:17.161Z,94760.00
2024-04-06T11:02:17.181Z,94760.00
2024-04-06T11:03:17.209Z,94760.00
2024-04-06T11:04:17.241Z,94760.00
2024-04-06T11:05:17.243Z,94760.00
2024-04-06T11:06:17.278Z,94760.00
2024-04-06T11:07:17.318Z,94759.00
2024-04-06T11:08:17.340Z,94760.00
2024-04-06T11:09:32.048Z,94756.00
2024-04-06T11:10:17.433Z,94757.00
2024-04-06T11:11:17.419Z,94755.00
2024-04-06T11:12:39.444Z,94753.00
2024-04-06T11:13:17.487Z,94753.00
2024-04-06T11:14:17.474Z,94748.00
2024-04-06T11:15:32.048Z,94747.00
2024-04-06T11:16:17.755Z,94745.00
2024-04-06T11:17:17.767Z,94745.00
2024-04-06T11:18:17.848Z,94746.00
2024-04-06T11:19:17.933Z,94742.00
2024-04-06T11:20:17.964Z,94741.00
2024-04-06T11:21:18.042Z,94739.00
2024-04-06T11:22:18.135Z,94736.00
2024-04-06T11:23:18.205Z,94736.00
2024-04-06T11:24:18.257Z,94732.00
2024-04-06T11:25:18.407Z,94733.00
2024-04-06T11:26:18.406Z,94731.00
2024-04-06T11:27:18.485Z,94732.00
2024-04-06T11:28:18.582Z,94731.00
2024-04-06T11:29:18.617Z,94730.00
2024-04-06T11:30:18.690Z,94726.00
2024-04-06T11:31:18.808Z,94725.00
2024-04-06T11:32:18.820Z,94723.00
2024-04-06T11:33:18.896Z,94721.00
2024-04-06T11:34:19.022Z,94718.00
2024-04-06T11:35:19.028Z,94718.00
2024-04-06T11:36:19.101Z,94716.00
2024-04-06T11:37:22.110Z,94714.00
2024-04-06T11:38:19.186Z,94712.00
2024-04-06T11:39:19.209Z,94713.00
2024-04-06T11:40:34.055Z,94710.00
2024-04-06T11:41:19.257Z,94709.00
2024-04-06T11:42:19.283Z,94709.00
2024-04-06T11:43:40.334Z,94706.00
2024-04-06T11:44:19.321Z,94707.00
2024-04-06T11:45:19.351Z,94707.00
2024-04-06T11:46:19.412Z,94705.00
2024-04-06T11:47:19.418Z,94703.00
2024-04-06T11:48:19.479Z,94703.00
2024-04-06T11:49:19.505Z,94702.00
2024-04-06T11:50:19.475Z,94702.00
2024-04-06T11:51:19.500Z,94699.00